sensor_id;sensor_type;location;lat;lon;timestamp;temperature;humidity
14008;DHT22;61651;45.508;12.232;2023-12-20T00:01:31;7.30;99.90
14008;DHT22;61651;45.508;12.232;2023-12-20T00:04:35;7.30;99.90
14008;DHT22;61651;45.508;12.232;2023-12-20T00:07:37;7.20;99.90
14008;DHT22;61651;45.508;12.232;2023-12-20T00:10:39;7.30;99.90
14008;DHT22;61651;45.508;12.232;2023-12-20T00:13:41;7.20;99.90
14008;DHT22;61651;45.508;12.232;2023-12-20T00:16:43;7.20;99.90
14008;DHT22;61651;45.508;12.232;2023-12-20T00:19:46;7.20;99.90
14008;DHT22;61651;45.508;12.232;2023-12-20T00:22:48;7.20;99.90
14008;DHT22;61651;45.508;12.232;2023-12-20T00:25:50;7.20;99.90
14008;DHT22;61651;45.508;12.232;2023-12-20T00:28:52;7.20;99.90
14008;DHT22;61651;45.508;12.232;2023-12-20T00:31:54;7.20;99.90
14008;DHT22;61651;45.508;12.232;2023-12-20T00:34:58;7.20;99.90
14008;DHT22;61651;45.508;12.232;2023-12-20T00:38:00;7.20;99.90
14008;DHT22;61651;45.508;12.232;2023-12-20T00:41:03;7.10;99.90
14008;DHT22;61651;45.508;12.232;2023-12-20T00:44:05;7.10;99.90
14008;DHT22;61651;45.508;12.232;2023-12-20T00:47:07;7.10;99.90
14008;DHT22;61651;45.508;12.232;2023-12-20T00:50:10;7.10;99.90
14008;DHT22;61651;45.508;12.232;2023-12-20T00:53:12;7.10;99.90
14008;DHT22;61651;45.508;12.232;2023-12-20T00:56:14;7.10;99.90
14008;DHT22;61651;45.508;12.232;2023-12-20T00:59:16;7.10;99.90
14008;DHT22;61651;45.508;12.232;2023-12-20T01:02:19;6.80;99.90
14008;DHT22;61651;45.508;12.232;2023-12-20T01:05:22;6.80;99.90
14008;DHT22;61651;45.508;12.232;2023-12-20T01:08:24;6.90;99.90
14008;DHT22;61651;45.508;12.232;2023-12-20T01:11:26;6.90;99.90
14008;DHT22;61651;45.508;12.232;2023-12-20T01:14:28;7.00;99.90
14008;DHT22;61651;45.508;12.232;2023-12-20T01:17:30;7.00;99.90
14008;DHT22;61651;45.508;12.232;2023-12-20T01:20:34;7.00;99.90
14008;DHT22;61651;45.508;12.232;2023-12-20T01:23:36;7.00;99.90
14008;DHT22;61651;45.508;12.232;2023-12-20T01:26:37;6.90;99.90
14008;DHT22;61651;45.508;12.232;2023-12-20T01:29:39;6.90;99.90
14008;DHT22;61651;45.508;12.232;2023-12-20T01:32:41;6.90;99.90
14008;DHT22;61651;45.508;12.232;2023-12-20T01:35:45;6.90;99.90
14008;DHT22;61651;45.508;12.232;2023-12-20T01:38:47;6.90;99.90
14008;DHT22;61651;45.508;12.232;2023-12-20T01:41:49;6.80;99.90
14008;DHT22;61651;45.508;12.232;2023-12-20T01:44:51;6.80;99.90
14008;DHT22;61651;45.508;12.232;2023-12-20T01:47:53;6.80;99.90
14008;DHT22;61651;45.508;12.232;2023-12-20T01:50:57;6.70;99.90
14008;DHT22;61651;45.508;12.232;2023-12-20T01:53:59;6.70;99.90
14008;DHT22;61651;45.508;12.232;2023-12-20T01:57:02;6.60;99.90
14008;DHT22;61651;45.508;12.232;2023-12-20T02:00:06;6.70;99.90
14008;DHT22;61651;45.508;12.232;2023-12-20T02:03:10;6.60;99.90
14008;DHT22;61651;45.508;12.232;2023-12-20T02:06:13;6.60;99.90
14008;DHT22;61651;45.508;12.232;2023-12-20T02:09:16;6.60;99.90
14008;DHT22;61651;45.508;12.232;2023-12-20T02:12:18;6.60;99.90
14008;DHT22;61651;45.508;12.232;2023-12-20T02:15:21;6.70;99.90
14008;DHT22;61651;45.508;12.232;2023-12-20T02:18:23;6.70;99.90
14008;DHT22;61651;45.508;12.232;2023-12-20T02:21:32;6.60;99.90
14008;DHT22;61651;45.508;12.232;2023-12-20T02:24:34;6.60;99.90
14008;DHT22;61651;45.508;12.232;2023-12-20T02:27:36;6.70;99.90
14008;DHT22;61651;45.508;12.232;2023-12-20T02:30:38;6.60;99.90
14008;DHT22;61651;45.508;12.232;2023-12-20T02:33:40;6.60;99.90
14008;DHT22;61651;45.508;12.232;2023-12-20T02:36:44;6.60;99.90
14008;DHT22;61651;45.508;12.232;2023-12-20T02:39:46;6.60;99.90
14008;DHT22;61651;45.508;12.232;2023-12-20T02:42:48;6.60;99.90
14008;DHT22;61651;45.508;12.232;2023-12-20T02:45:50;6.60;99.90
14008;DHT22;61651;45.508;12.232;2023-12-20T02:48:52;6.60;99.90
14008;DHT22;61651;45.508;12.232;2023-12-20T02:51:56;6.60;99.90
14008;DHT22;61651;45.508;12.232;2023-12-20T02:54:58;6.60;99.90
14008;DHT22;61651;45.508;12.232;2023-12-20T02:58:00;6.50;99.90
14008;DHT22;61651;45.508;12.232;2023-12-20T03:01:02;6.60;99.90
14008;DHT22;61651;45.508;12.232;2023-12-20T03:04:04;6.60;99.90
14008;DHT22;61651;45.508;12.232;2023-12-20T03:07:08;6.60;99.90
14008;DHT22;61651;45.508;12.232;2023-12-20T03:10:10;6.60;99.90
14008;DHT22;61651;45.508;12.232;2023-12-20T03:13:12;6.60;99.90
14008;DHT22;61651;45.508;12.232;2023-12-20T03:16:14;6.50;99.90
14008;DHT22;61651;45.508;12.232;2023-12-20T03:19:17;6.50;99.90
14008;DHT22;61651;45.508;12.232;2023-12-20T03:22:22;6.50;99.90
14008;DHT22;61651;45.508;12.232;2023-12-20T03:25:23;6.50;99.90
14008;DHT22;61651;45.508;12.232;2023-12-20T03:28:27;6.40;99.90
14008;DHT22;61651;45.508;12.232;2023-12-20T03:31:29;6.40;99.90
14008;DHT22;61651;45.508;12.232;2023-12-20T03:34:31;6.50;99.90
14008;DHT22;61651;45.508;12.232;2023-12-20T03:37:34;6.50;99.90
14008;DHT22;61651;45.508;12.232;2023-12-20T03:40:36;6.50;99.90
14008;DHT22;61651;45.508;12.232;2023-12-20T03:43:38;6.50;99.90
14008;DHT22;61651;45.508;12.232;2023-12-20T03:46:40;6.50;99.90
14008;DHT22;61651;45.508;12.232;2023-12-20T03:49:42;6.50;99.90
14008;DHT22;61651;45.508;12.232;2023-12-20T03:52:46;6.50;99.90
14008;DHT22;61651;45.508;12.232;2023-12-20T03:55:48;6.50;99.90
14008;DHT22;61651;45.508;12.232;2023-12-20T03:58:50;6.50;99.90
14008;DHT22;61651;45.508;12.232;2023-12-20T04:01:52;6.60;99.90
14008;DHT22;61651;45.508;12.232;2023-12-20T04:04:54;6.50;99.90
14008;DHT22;61651;45.508;12.232;2023-12-20T04:07:59;6.50;99.90
14008;DHT22;61651;45.508;12.232;2023-12-20T04:11:01;6.50;99.90
14008;DHT22;61651;45.508;12.232;2023-12-20T04:14:03;6.50;99.90
14008;DHT22;61651;45.508;12.232;2023-12-20T04:17:06;6.40;99.90
14008;DHT22;61651;45.508;12.232;2023-12-20T04:20:09;6.40;99.90
14008;DHT22;61651;45.508;12.232;2023-12-20T04:23:12;6.50;99.90
14008;DHT22;61651;45.508;12.232;2023-12-20T04:26:15;6.50;99.90
14008;DHT22;61651;45.508;12.232;2023-12-20T04:29:17;6.40;99.90
14008;DHT22;61651;45.508;12.232;2023-12-20T04:32:19;6.40;99.90
14008;DHT22;61651;45.508;12.232;2023-12-20T04:35:21;6.40;99.90
14008;DHT22;61651;45.508;12.232;2023-12-20T04:38:24;6.40;99.90
14008;DHT22;61651;45.508;12.232;2023-12-20T04:41:26;6.40;99.90
14008;DHT22;61651;45.508;12.232;2023-12-20T04:44:28;6.40;99.90
14008;DHT22;61651;45.508;12.232;2023-12-20T04:47:31;6.40;99.90
14008;DHT22;61651;45.508;12.232;2023-12-20T04:50:32;6.30;99.90
14008;DHT22;61651;45.508;12.232;2023-12-20T04:53:36;6.30;99.90
14008;DHT22;61651;45.508;12.232;2023-12-20T04:56:38;6.40;99.90
14008;DHT22;61651;45.508;12.232;2023-12-20T04:59:40;6.40;99.90
14008;DHT22;61651;45.508;12.232;2023-12-20T05:02:42;6.40;99.90
14008;DHT22;61651;45.508;12.232;2023-12-20T05:05:44;6.40;99.90
14008;DHT22;61651;45.508;12.232;2023-12-20T05:08:47;6.40;99.90
14008;DHT22;61651;45.508;12.232;2023-12-20T05:11:49;6.40;99.90
14008;DHT22;61651;45.508;12.232;2023-12-20T05:14:52;6.40;99.90
14008;DHT22;61651;45.508;12.232;2023-12-20T05:17:54;6.50;99.90
14008;DHT22;61651;45.508;12.232;2023-12-20T05:20:56;6.50;99.90
14008;DHT22;61651;45.508;12.232;2023-12-20T05:24:00;6.50;99.90
14008;DHT22;61651;45.508;12.232;2023-12-20T05:27:02;6.50;99.90
14008;DHT22;61651;45.508;12.232;2023-12-20T05:30:05;6.50;99.90
14008;DHT22;61651;45.508;12.232;2023-12-20T05:33:07;6.50;99.90
14008;DHT22;61651;45.508;12.232;2023-12-20T05:36:09;6.40;99.90
14008;DHT22;61651;45.508;12.232;2023-12-20T05:39:15;6.50;99.90
14008;DHT22;61651;45.508;12.232;2023-12-20T05:42:17;6.60;99.90
14008;DHT22;61651;45.508;12.232;2023-12-20T05:45:19;6.60;99.90
14008;DHT22;61651;45.508;12.232;2023-12-20T05:48:22;6.60;99.90
14008;DHT22;61651;45.508;12.232;2023-12-20T05:51:24;6.60;99.90
14008;DHT22;61651;45.508;12.232;2023-12-20T05:54:27;6.70;99.90
14008;DHT22;61651;45.508;12.232;2023-12-20T05:57:29;6.70;99.90
14008;DHT22;61651;45.508;12.232;2023-12-20T06:00:31;6.80;99.90
14008;DHT22;61651;45.508;12.232;2023-12-20T06:03:33;6.80;99.90
14008;DHT22;61651;45.508;12.232;2023-12-20T06:06:41;6.80;99.90
14008;DHT22;61651;45.508;12.232;2023-12-20T06:09:44;6.80;99.90
14008;DHT22;61651;45.508;12.232;2023-12-20T06:12:46;6.80;99.90
14008;DHT22;61651;45.508;12.232;2023-12-20T06:15:51;6.80;99.90
14008;DHT22;61651;45.508;12.232;2023-12-20T06:18:53;6.80;99.90
14008;DHT22;61651;45.508;12.232;2023-12-20T06:21:55;6.80;99.90
14008;DHT22;61651;45.508;12.232;2023-12-20T06:24:58;6.70;99.90
14008;DHT22;61651;45.508;12.232;2023-12-20T06:28:00;6.60;99.90
14008;DHT22;61651;45.508;12.232;2023-12-20T06:31:03;6.60;99.90
14008;DHT22;61651;45.508;12.232;2023-12-20T06:34:05;6.70;99.90
14008;DHT22;61651;45.508;12.232;2023-12-20T06:37:07;6.70;99.90
14008;DHT22;61651;45.508;12.232;2023-12-20T06:40:11;6.70;99.90
14008;DHT22;61651;45.508;12.232;2023-12-20T06:43:13;6.60;99.90
14008;DHT22;61651;45.508;12.232;2023-12-20T06:46:15;6.70;99.90
14008;DHT22;61651;45.508;12.232;2023-12-20T06:49:17;6.80;99.90
14008;DHT22;61651;45.508;12.232;2023-12-20T06:52:20;6.90;99.90
14008;DHT22;61651;45.508;12.232;2023-12-20T06:55:23;7.00;99.90
14008;DHT22;61651;45.508;12.232;2023-12-20T06:58:26;7.00;99.90
14008;DHT22;61651;45.508;12.232;2023-12-20T07:01:28;7.00;99.90
14008;DHT22;61651;45.508;12.232;2023-12-20T07:04:30;7.10;99.90
14008;DHT22;61651;45.508;12.232;2023-12-20T07:07:32;7.20;99.90
14008;DHT22;61651;45.508;12.232;2023-12-20T07:10:35;7.20;99.90
14008;DHT22;61651;45.508;12.232;2023-12-20T07:13:37;7.10;99.90
14008;DHT22;61651;45.508;12.232;2023-12-20T07:16:39;7.10;99.90
14008;DHT22;61651;45.508;12.232;2023-12-20T07:19:41;7.20;99.90
14008;DHT22;61651;45.508;12.232;2023-12-20T07:22:43;7.30;99.90
14008;DHT22;61651;45.508;12.232;2023-12-20T07:25:47;7.30;99.90
14008;DHT22;61651;45.508;12.232;2023-12-20T07:28:49;7.30;99.90
14008;DHT22;61651;45.508;12.232;2023-12-20T07:31:51;7.30;99.90
14008;DHT22;61651;45.508;12.232;2023-12-20T07:34:54;7.40;99.90
14008;DHT22;61651;45.508;12.232;2023-12-20T07:37:56;7.50;99.90
14008;DHT22;61651;45.508;12.232;2023-12-20T07:41:00;7.60;99.90
14008;DHT22;61651;45.508;12.232;2023-12-20T07:44:03;7.50;99.90
14008;DHT22;61651;45.508;12.232;2023-12-20T07:47:06;7.50;99.90
14008;DHT22;61651;45.508;12.232;2023-12-20T07:50:08;7.50;99.90
14008;DHT22;61651;45.508;12.232;2023-12-20T07:53:10;7.50;99.90
14008;DHT22;61651;45.508;12.232;2023-12-20T07:56:18;7.60;99.90
14008;DHT22;61651;45.508;12.232;2023-12-20T07:59:21;7.70;99.90
14008;DHT22;61651;45.508;12.232;2023-12-20T08:02:23;7.60;99.90
14008;DHT22;61651;45.508;12.232;2023-12-20T08:05:25;7.60;99.90
14008;DHT22;61651;45.508;12.232;2023-12-20T08:08:27;7.50;99.90
14008;DHT22;61651;45.508;12.232;2023-12-20T08:11:30;7.60;99.90
14008;DHT22;61651;45.508;12.232;2023-12-20T08:14:32;7.70;99.90
14008;DHT22;61651;45.508;12.232;2023-12-20T08:17:34;7.70;99.90
14008;DHT22;61651;45.508;12.232;2023-12-20T08:20:36;7.80;99.90
14008;DHT22;61651;45.508;12.232;2023-12-20T08:23:38;7.80;99.90
14008;DHT22;61651;45.508;12.232;2023-12-20T08:26:41;8.00;99.90
14008;DHT22;61651;45.508;12.232;2023-12-20T08:29:44;8.00;99.90
14008;DHT22;61651;45.508;12.232;2023-12-20T08:32:46;8.00;99.90
14008;DHT22;61651;45.508;12.232;2023-12-20T08:35:48;8.00;99.90
14008;DHT22;61651;45.508;12.232;2023-12-20T08:38:50;8.10;99.90
14008;DHT22;61651;45.508;12.232;2023-12-20T08:41:53;8.20;99.90
14008;DHT22;61651;45.508;12.232;2023-12-20T08:44:55;8.20;99.90
14008;DHT22;61651;45.508;12.232;2023-12-20T08:47:57;8.30;99.90
14008;DHT22;61651;45.508;12.232;2023-12-20T08:51:00;8.40;99.90
14008;DHT22;61651;45.508;12.232;2023-12-20T08:54:03;8.30;99.90
14008;DHT22;61651;45.508;12.232;2023-12-20T08:57:09;8.30;99.90
14008;DHT22;61651;45.508;12.232;2023-12-20T09:00:13;8.40;99.90
14008;DHT22;61651;45.508;12.232;2023-12-20T09:03:15;8.50;99.90
14008;DHT22;61651;45.508;12.232;2023-12-20T09:06:17;8.60;99.90
14008;DHT22;61651;45.508;12.232;2023-12-20T09:09:19;8.70;99.90
14008;DHT22;61651;45.508;12.232;2023-12-20T09:12:22;8.70;99.90
14008;DHT22;61651;45.508;12.232;2023-12-20T09:15:25;8.80;99.90
14008;DHT22;61651;45.508;12.232;2023-12-20T09:18:27;8.90;99.90
14008;DHT22;61651;45.508;12.232;2023-12-20T09:21:29;8.90;99.90
14008;DHT22;61651;45.508;12.232;2023-12-20T09:24:31;8.90;99.90
14008;DHT22;61651;45.508;12.232;2023-12-20T09:27:35;9.00;99.90
14008;DHT22;61651;45.508;12.232;2023-12-20T09:30:37;9.00;99.90
14008;DHT22;61651;45.508;12.232;2023-12-20T09:33:40;9.10;99.90
14008;DHT22;61651;45.508;12.232;2023-12-20T09:36:42;9.10;99.90
14008;DHT22;61651;45.508;12.232;2023-12-20T09:39:47;9.20;99.90
14008;DHT22;61651;45.508;12.232;2023-12-20T09:42:56;9.20;99.90
14008;DHT22;61651;45.508;12.232;2023-12-20T09:46:00;9.30;99.90
14008;DHT22;61651;45.508;12.232;2023-12-20T09:49:04;9.30;99.90
14008;DHT22;61651;45.508;12.232;2023-12-20T09:52:07;9.30;99.90
14008;DHT22;61651;45.508;12.232;2023-12-20T09:55:11;9.40;99.90
14008;DHT22;61651;45.508;12.232;2023-12-20T09:58:15;9.40;99.90
14008;DHT22;61651;45.508;12.232;2023-12-20T10:01:18;9.40;99.90
14008;DHT22;61651;45.508;12.232;2023-12-20T10:04:20;9.60;99.90
14008;DHT22;61651;45.508;12.232;2023-12-20T10:07:22;9.70;99.90
14008;DHT22;61651;45.508;12.232;2023-12-20T10:10:25;9.80;99.90
14008;DHT22;61651;45.508;12.232;2023-12-20T10:13:28;9.80;99.90
14008;DHT22;61651;45.508;12.232;2023-12-20T10:16:31;9.90;99.90
14008;DHT22;61651;45.508;12.232;2023-12-20T10:19:33;10.00;99.90
14008;DHT22;61651;45.508;12.232;2023-12-20T10:22:36;10.00;99.90
14008;DHT22;61651;45.508;12.232;2023-12-20T10:25:38;10.00;99.90
14008;DHT22;61651;45.508;12.232;2023-12-20T10:28:43;9.90;99.90
14008;DHT22;61651;45.508;12.232;2023-12-20T10:31:45;10.00;99.90
14008;DHT22;61651;45.508;12.232;2023-12-20T10:34:47;10.00;99.90
14008;DHT22;61651;45.508;12.232;2023-12-20T10:37:51;10.10;99.90
14008;DHT22;61651;45.508;12.232;2023-12-20T10:40:57;10.10;99.90
14008;DHT22;61651;45.508;12.232;2023-12-20T10:44:02;10.20;99.90
14008;DHT22;61651;45.508;12.232;2023-12-20T10:47:05;10.20;99.90
14008;DHT22;61651;45.508;12.232;2023-12-20T10:50:08;10.20;99.90
14008;DHT22;61651;45.508;12.232;2023-12-20T10:53:10;10.20;99.90
14008;DHT22;61651;45.508;12.232;2023-12-20T10:56:16;10.30;99.90
14008;DHT22;61651;45.508;12.232;2023-12-20T10:59:20;10.30;99.90
14008;DHT22;61651;45.508;12.232;2023-12-20T11:02:25;10.30;99.90
14008;DHT22;61651;45.508;12.232;2023-12-20T11:05:33;10.30;99.90
14008;DHT22;61651;45.508;12.232;2023-12-20T11:08:42;10.30;99.90
14008;DHT22;61651;45.508;12.232;2023-12-20T11:11:56;10.40;99.90
14008;DHT22;61651;45.508;12.232;2023-12-20T11:15:03;10.40;99.90
14008;DHT22;61651;45.508;12.232;2023-12-20T11:18:05;10.40;99.90
14008;DHT22;61651;45.508;12.232;2023-12-20T11:21:07;10.40;99.90
14008;DHT22;61651;45.508;12.232;2023-12-20T11:24:10;10.50;99.90
14008;DHT22;61651;45.508;12.232;2023-12-20T11:27:13;10.50;99.90
14008;DHT22;61651;45.508;12.232;2023-12-20T11:30:16;10.40;99.90
14008;DHT22;61651;45.508;12.232;2023-12-20T11:33:22;10.50;99.90
14008;DHT22;61651;45.508;12.232;2023-12-20T11:36:25;10.60;99.90
14008;DHT22;61651;45.508;12.232;2023-12-20T11:39:28;10.60;99.90
14008;DHT22;61651;45.508;12.232;2023-12-20T11:42:33;10.70;99.90
14008;DHT22;61651;45.508;12.232;2023-12-20T11:45:36;10.70;99.90
14008;DHT22;61651;45.508;12.232;2023-12-20T11:48:39;10.80;99.90
14008;DHT22;61651;45.508;12.232;2023-12-20T11:51:41;10.70;99.90
14008;DHT22;61651;45.508;12.232;2023-12-20T11:54:44;10.60;99.90
14008;DHT22;61651;45.508;12.232;2023-12-20T11:57:46;10.70;99.90
14008;DHT22;61651;45.508;12.232;2023-12-20T12:00:50;10.70;99.90
14008;DHT22;61651;45.508;12.232;2023-12-20T12:04:02;10.50;99.90
14008;DHT22;61651;45.508;12.232;2023-12-20T12:07:04;10.60;99.90
14008;DHT22;61651;45.508;12.232;2023-12-20T12:10:07;10.60;99.90
14008;DHT22;61651;45.508;12.232;2023-12-20T12:13:09;10.70;99.90
14008;DHT22;61651;45.508;12.232;2023-12-20T12:16:16;10.70;99.90
14008;DHT22;61651;45.508;12.232;2023-12-20T12:19:21;10.60;99.90
14008;DHT22;61651;45.508;12.232;2023-12-20T12:22:24;10.50;99.90
14008;DHT22;61651;45.508;12.232;2023-12-20T12:25:29;10.50;99.90
14008;DHT22;61651;45.508;12.232;2023-12-20T12:28:31;10.50;99.90
14008;DHT22;61651;45.508;12.232;2023-12-20T12:31:35;10.60;99.90
14008;DHT22;61651;45.508;12.232;2023-12-20T12:34:40;10.60;99.90
14008;DHT22;61651;45.508;12.232;2023-12-20T12:37:42;10.60;99.90
14008;DHT22;61651;45.508;12.232;2023-12-20T12:40:44;10.70;99.90
14008;DHT22;61651;45.508;12.232;2023-12-20T12:43:46;10.70;99.90
14008;DHT22;61651;45.508;12.232;2023-12-20T12:46:49;10.70;99.90
14008;DHT22;61651;45.508;12.232;2023-12-20T12:49:52;10.80;99.90
14008;DHT22;61651;45.508;12.232;2023-12-20T12:52:54;10.90;99.90
14008;DHT22;61651;45.508;12.232;2023-12-20T12:55:56;10.90;99.90
14008;DHT22;61651;45.508;12.232;2023-12-20T12:58:58;10.80;99.90
14008;DHT22;61651;45.508;12.232;2023-12-20T13:02:02;10.80;99.90
14008;DHT22;61651;45.508;12.232;2023-12-20T13:05:05;10.70;99.90
14008;DHT22;61651;45.508;12.232;2023-12-20T13:08:07;10.70;99.90
14008;DHT22;61651;45.508;12.232;2023-12-20T13:11:10;10.80;99.90
14008;DHT22;61651;45.508;12.232;2023-12-20T13:14:12;10.80;99.90
14008;DHT22;61651;45.508;12.232;2023-12-20T13:17:18;10.90;99.90
14008;DHT22;61651;45.508;12.232;2023-12-20T13:20:20;11.00;99.90
14008;DHT22;61651;45.508;12.232;2023-12-20T13:23:22;10.90;99.90
14008;DHT22;61651;45.508;12.232;2023-12-20T13:26:24;10.90;99.90
14008;DHT22;61651;45.508;12.232;2023-12-20T13:29:26;10.80;99.90
14008;DHT22;61651;45.508;12.232;2023-12-20T13:32:30;10.90;99.90
14008;DHT22;61651;45.508;12.232;2023-12-20T13:35:32;10.90;99.90
14008;DHT22;61651;45.508;12.232;2023-12-20T13:38:34;10.90;99.90
14008;DHT22;61651;45.508;12.232;2023-12-20T13:41:36;11.00;99.90
14008;DHT22;61651;45.508;12.232;2023-12-20T13:44:38;10.90;99.90
14008;DHT22;61651;45.508;12.232;2023-12-20T13:47:41;11.00;99.90
14008;DHT22;61651;45.508;12.232;2023-12-20T13:50:43;11.00;99.90
14008;DHT22;61651;45.508;12.232;2023-12-20T13:53:45;11.00;99.90
14008;DHT22;61651;45.508;12.232;2023-12-20T13:56:48;11.00;99.90
14008;DHT22;61651;45.508;12.232;2023-12-20T13:59:50;11.10;99.90
14008;DHT22;61651;45.508;12.232;2023-12-20T14:02:54;11.10;99.90
14008;DHT22;61651;45.508;12.232;2023-12-20T14:05:57;11.20;99.90
14008;DHT22;61651;45.508;12.232;2023-12-20T14:08:59;11.10;99.90
14008;DHT22;61651;45.508;12.232;2023-12-20T14:12:01;10.90;99.90
14008;DHT22;61651;45.508;12.232;2023-12-20T14:15:04;10.90;99.90
14008;DHT22;61651;45.508;12.232;2023-12-20T14:18:11;10.90;99.90
14008;DHT22;61651;45.508;12.232;2023-12-20T14:21:15;10.90;99.90
14008;DHT22;61651;45.508;12.232;2023-12-20T14:24:17;11.00;99.90
14008;DHT22;61651;45.508;12.232;2023-12-20T14:27:19;11.10;99.90
14008;DHT22;61651;45.508;12.232;2023-12-20T14:30:25;11.30;99.90
14008;DHT22;61651;45.508;12.232;2023-12-20T14:33:28;11.50;99.90
14008;DHT22;61651;45.508;12.232;2023-12-20T14:36:30;11.60;99.90
14008;DHT22;61651;45.508;12.232;2023-12-20T14:39:32;11.60;99.90
14008;DHT22;61651;45.508;12.232;2023-12-20T14:42:34;11.60;99.90
14008;DHT22;61651;45.508;12.232;2023-12-20T14:45:37;11.60;99.90
14008;DHT22;61651;45.508;12.232;2023-12-20T14:48:41;11.60;99.90
14008;DHT22;61651;45.508;12.232;2023-12-20T14:51:44;11.60;99.90
14008;DHT22;61651;45.508;12.232;2023-12-20T14:54:48;11.70;99.90
14008;DHT22;61651;45.508;12.232;2023-12-20T14:57:50;11.70;99.90
14008;DHT22;61651;45.508;12.232;2023-12-20T15:00:52;11.70;99.90
14008;DHT22;61651;45.508;12.232;2023-12-20T15:03:55;11.70;99.90
14008;DHT22;61651;45.508;12.232;2023-12-20T15:06:57;11.60;99.90
14008;DHT22;61651;45.508;12.232;2023-12-20T15:10:01;11.50;99.90
14008;DHT22;61651;45.508;12.232;2023-12-20T15:13:03;11.50;99.90
14008;DHT22;61651;45.508;12.232;2023-12-20T15:16:06;11.50;99.90
14008;DHT22;61651;45.508;12.232;2023-12-20T15:19:09;11.50;99.90
14008;DHT22;61651;45.508;12.232;2023-12-20T15:22:12;11.40;99.90
14008;DHT22;61651;45.508;12.232;2023-12-20T15:25:14;11.30;99.90
14008;DHT22;61651;45.508;12.232;2023-12-20T15:28:21;11.30;99.90
14008;DHT22;61651;45.508;12.232;2023-12-20T15:31:23;11.20;99.90
14008;DHT22;61651;45.508;12.232;2023-12-20T15:34:29;11.20;99.90
14008;DHT22;61651;45.508;12.232;2023-12-20T15:37:31;11.20;99.90
14008;DHT22;61651;45.508;12.232;2023-12-20T15:40:33;11.20;99.90
14008;DHT22;61651;45.508;12.232;2023-12-20T15:43:35;11.20;99.90
14008;DHT22;61651;45.508;12.232;2023-12-20T15:46:38;11.10;99.90
14008;DHT22;61651;45.508;12.232;2023-12-20T15:49:42;11.00;99.90
14008;DHT22;61651;45.508;12.232;2023-12-20T15:52:43;10.90;99.90
14008;DHT22;61651;45.508;12.232;2023-12-20T15:55:46;10.90;99.90
14008;DHT22;61651;45.508;12.232;2023-12-20T15:58:48;10.90;99.90
14008;DHT22;61651;45.508;12.232;2023-12-20T16:01:52;10.80;99.90
14008;DHT22;61651;45.508;12.232;2023-12-20T16:04:55;10.80;99.90
14008;DHT22;61651;45.508;12.232;2023-12-20T16:07:57;10.60;99.90
14008;DHT22;61651;45.508;12.232;2023-12-20T16:10:59;10.50;99.90
14008;DHT22;61651;45.508;12.232;2023-12-20T16:14:01;10.30;99.90
14008;DHT22;61651;45.508;12.232;2023-12-20T16:17:03;10.30;99.90
14008;DHT22;61651;45.508;12.232;2023-12-20T16:20:08;10.40;99.90
14008;DHT22;61651;45.508;12.232;2023-12-20T16:23:11;10.50;99.90
14008;DHT22;61651;45.508;12.232;2023-12-20T16:26:13;10.50;99.90
14008;DHT22;61651;45.508;12.232;2023-12-20T16:29:15;10.50;99.90
14008;DHT22;61651;45.508;12.232;2023-12-20T16:32:17;10.50;99.90
14008;DHT22;61651;45.508;12.232;2023-12-20T16:35:20;10.40;99.90
14008;DHT22;61651;45.508;12.232;2023-12-20T16:38:22;10.40;99.90
14008;DHT22;61651;45.508;12.232;2023-12-20T16:41:24;10.40;99.90
14008;DHT22;61651;45.508;12.232;2023-12-20T16:44:26;10.40;99.90
14008;DHT22;61651;45.508;12.232;2023-12-20T16:47:28;10.30;99.90
14008;DHT22;61651;45.508;12.232;2023-12-20T16:50:31;10.40;99.90
14008;DHT22;61651;45.508;12.232;2023-12-20T16:53:33;10.40;99.90
14008;DHT22;61651;45.508;12.232;2023-12-20T16:56:35;10.40;99.90
14008;DHT22;61651;45.508;12.232;2023-12-20T16:59:42;10.40;99.90
14008;DHT22;61651;45.508;12.232;2023-12-20T17:02:43;10.30;99.90
14008;DHT22;61651;45.508;12.232;2023-12-20T17:05:47;10.30;99.90
14008;DHT22;61651;45.508;12.232;2023-12-20T17:08:49;10.20;99.90
14008;DHT22;61651;45.508;12.232;2023-12-20T17:11:51;10.20;99.90
14008;DHT22;61651;45.508;12.232;2023-12-20T17:14:53;10.30;99.90
14008;DHT22;61651;45.508;12.232;2023-12-20T17:17:55;10.30;99.90
14008;DHT22;61651;45.508;12.232;2023-12-20T17:20:59;10.30;99.90
14008;DHT22;61651;45.508;12.232;2023-12-20T17:24:01;10.30;99.90
14008;DHT22;61651;45.508;12.232;2023-12-20T17:27:04;10.30;99.90
14008;DHT22;61651;45.508;12.232;2023-12-20T17:30:07;10.30;99.90
14008;DHT22;61651;45.508;12.232;2023-12-20T17:33:09;10.30;99.90
14008;DHT22;61651;45.508;12.232;2023-12-20T17:36:13;10.20;99.90
14008;DHT22;61651;45.508;12.232;2023-12-20T17:39:17;10.10;99.90
14008;DHT22;61651;45.508;12.232;2023-12-20T17:42:19;10.10;99.90
14008;DHT22;61651;45.508;12.232;2023-12-20T17:45:21;10.10;99.90
14008;DHT22;61651;45.508;12.232;2023-12-20T17:48:23;10.10;99.90
14008;DHT22;61651;45.508;12.232;2023-12-20T17:51:26;10.00;99.90
14008;DHT22;61651;45.508;12.232;2023-12-20T17:54:28;10.00;99.90
14008;DHT22;61651;45.508;12.232;2023-12-20T17:57:31;9.90;99.90
14008;DHT22;61651;45.508;12.232;2023-12-20T18:00:34;10.00;99.90
14008;DHT22;61651;45.508;12.232;2023-12-20T18:03:36;10.00;99.90
14008;DHT22;61651;45.508;12.232;2023-12-20T18:06:39;10.00;99.90
14008;DHT22;61651;45.508;12.232;2023-12-20T18:09:42;10.00;99.90
14008;DHT22;61651;45.508;12.232;2023-12-20T18:12:44;10.00;99.90
14008;DHT22;61651;45.508;12.232;2023-12-20T18:15:45;10.00;99.90
14008;DHT22;61651;45.508;12.232;2023-12-20T18:18:47;10.00;99.90
14008;DHT22;61651;45.508;12.232;2023-12-20T18:21:51;9.90;99.90
14008;DHT22;61651;45.508;12.232;2023-12-20T18:24:54;9.90;99.90
14008;DHT22;61651;45.508;12.232;2023-12-20T18:27:57;9.80;99.90
14008;DHT22;61651;45.508;12.232;2023-12-20T18:31:00;9.80;99.90
14008;DHT22;61651;45.508;12.232;2023-12-20T18:34:03;9.80;99.90
14008;DHT22;61651;45.508;12.232;2023-12-20T18:37:08;9.80;99.90
14008;DHT22;61651;45.508;12.232;2023-12-20T18:40:12;9.80;99.90
14008;DHT22;61651;45.508;12.232;2023-12-20T18:43:14;9.50;99.90
14008;DHT22;61651;45.508;12.232;2023-12-20T18:46:16;9.10;99.90
14008;DHT22;61651;45.508;12.232;2023-12-20T18:49:20;8.90;99.90
14008;DHT22;61651;45.508;12.232;2023-12-20T18:52:25;9.00;99.90
14008;DHT22;61651;45.508;12.232;2023-12-20T18:55:29;9.20;99.90
14008;DHT22;61651;45.508;12.232;2023-12-20T18:58:31;9.30;99.90
14008;DHT22;61651;45.508;12.232;2023-12-20T19:01:34;9.30;99.90
14008;DHT22;61651;45.508;12.232;2023-12-20T19:04:38;9.40;99.90
14008;DHT22;61651;45.508;12.232;2023-12-20T19:07:43;9.30;99.90